Aeroporto :
LOGIN :

Iscrizione | Disclaimer

   EN    FR    IT 

 










Sommario :    VFR   VFR Marginale   IFR   IFR Intensivo   IFR Molto Intensivo
Visibilità : 
Base nubi : 
>= 8 km
>= 3000ft
5 / 8 km
1000 / 3000 ft
1500m / 5 km
500 / 1000 ft
800 / 1500m
200 / 500 ft
< 800m
< 200 ft
Simboli :   Temporali  Nebbia  Neve Forte  Precipitazioni Forti  Vento > 20 kt
SIGMETs :   Varie  Temporali  Ghiacco  Turbolenza  Onda orograficha  Ceneri Vulcaniche






- Altitudine del aeroporto : 348 ft
- Codice IATA : STN


EGSS - London Stansted

ULTIMO METAR :
  • 231850Z AUTO 19003KT 160V230 9999 -RA FEW042/// //////TCU 04/03 Q0988

METARs OBSOLETI :
  • 231820Z AUTO 20006KT 170V230 9999 -RA SCT023/// BKN030/// BKN038/// //////TCU 04/03 Q0988
  • 231750Z AUTO 24006KT 8000 -RA BKN019/// OVC024/// //////TCU 04/03 Q0988 RERA
  • 231720Z AUTO 23006KT 3700 RA BKN014/// OVC029/// //////CB 05/03 Q0987
  • 231650Z AUTO 17008KT 9999 -RA BKN020/// BKN028/// OVC041/// //////CB 05/03 Q0987
  • 231620Z AUTO VRB02KT 9999 FEW035/// //////CB 06/02 Q0986
  • 231550Z AUTO VRB02KT 9999 FEW039/// SCT048/// //////CB 07/02 Q0986
  • 231520Z AUTO 27005KT 230V310 9999 SCT028/// BKN035/// BKN042/// //////CB 07/02 Q0986
  • 231450Z AUTO VRB01KT 9999 BKN030/// BKN046/// //////CB 08/02 Q0986
  • 231420Z AUTO VRB02KT 9999 FEW033/// //////CB 08/02 Q0986

TAF TAF EGSS
Valido dal 23 a 18 ore il 25 a 00 ore UTC


231701Z 2318/2424 22009KT 9999 SCT030
TEMPO 2318/2321 7000 SHRA
TEMPO 2321/2410 6000
PROB30 2402/2409 0300 FG FZFG BKN000
PROB30
TEMPO 2412/2418 6000 SHRA
PROB30 2421/2424 6000
ATIS : +44 1279 669 325



MetMap, La meteo Aeronautica in un colpo d'occhio ! - Copyright ORBIFLY Dicembre 2007 - Disclaimer

ORBIFLY MET'MAP TEAM :

Programmazione e sviluppo : Alexandra Zaïnal
Concezione : Baudouin d'Aumeries
Supporto tecnico e logistico : Manuel Goepfert
Aiuto : Marc-Olivier Méhu
Aiuto per la traduzione : Arnaldo La Scala




FONTI E CREDITI :

   NOAA